Hat Yai, Thailand
Current Conditions -  °F | °C
As of 9:30 PM on Thursday 30 Oct 2014 (Local Time) from VTSS Reporting Station
Broken Clouds Broken Clouds  
Wind Chill: 79°   Ceiling: 30000
Heat Index: 83°   Visibility: 6mi
Dew Point: 77°   Wind: 0mph
Humidity: 94%   Direction: NA
Pressure: 29.85"   Gusts: NA
Location:  7°N, 100.47°E
Report Text: VTSS 301430Z 00000KT 9999 FEW020 SCT120 BKN300 26/25 Q1011 A2985 NOSIG
Loading
Personal Weather Stations






























Interactive Weather Map
Tropical Storm Tracking
New forecast layout! Learn more

10-Day Weather Forecast

Advertisements
Track Severe Weather on mobile